Terminal Aerodrome Forecast
Issued by NWS

Home | Current Version | Previous Version | Text Only | Print | Product List | Glossary On
Versions: 1 2 3 4 5 6 7 8 9 10 11 12 13 14 15
000
FTUS44 KBMX 270500
TAFTCL
TAF
KTCL 270536Z 2706/2806 35007KT P6SM SKC
     FM270800 34007KT P6SM BKN025
     FM271100 35010KT P6SM OVC015
     FM271700 35010KT P6SM BKN025
     FM272100 35008KT P6SM SCT025=

USA.gov is the U.S. government's official web portal to all federal, state and local government web resources and services.